createdAt,value
2022-11-04T00:01:04.960Z,3.30
2022-11-04T00:03:34.002Z,3.58
2022-11-04T00:06:01.897Z,4.18
2022-11-04T00:08:29.458Z,3.30
2022-11-04T00:11:15.335Z,3.10
2022-11-04T00:13:43.247Z,2.25
2022-11-04T00:16:28.813Z,2.17
2022-11-04T00:18:58.324Z,1.80
2022-11-04T00:21:43.360Z,1.65
2022-11-04T00:24:57.396Z,1.20
2022-11-04T00:27:43.120Z,1.30
2022-11-04T00:30:11.996Z,1.10
2022-11-04T00:32:57.339Z,0.77
2022-11-04T00:35:26.269Z,0.88
2022-11-04T00:37:53.946Z,1.20
2022-11-04T00:40:21.448Z,1.20
2022-11-04T00:42:50.023Z,1.08
2022-11-04T00:45:17.782Z,1.30
2022-11-04T00:47:45.559Z,1.20
2022-11-04T00:50:13.131Z,1.27
2022-11-04T00:52:42.320Z,1.05
2022-11-04T00:55:10.567Z,1.23
2022-11-04T00:57:38.268Z,1.25
2022-11-04T01:00:07.342Z,1.02
2022-11-04T01:02:34.931Z,1.23
2022-11-04T01:05:03.167Z,1.20
2022-11-04T01:07:30.871Z,1.55
2022-11-04T01:09:59.859Z,1.80
2022-11-04T01:12:27.587Z,1.83
2022-11-04T01:14:55.348Z,2.15
2022-11-04T01:17:23.074Z,2.17
2022-11-04T01:19:51.355Z,2.50
2022-11-04T01:22:19.749Z,2.65
2022-11-04T01:24:47.522Z,2.42
2022-11-04T01:27:16.821Z,3.00
2022-11-04T01:29:44.690Z,3.10
2022-11-04T01:32:12.384Z,3.15
2022-11-04T01:34:43.469Z,3.20
2022-11-04T01:37:11.475Z,3.50
2022-11-04T01:39:39.834Z,3.60
2022-11-04T01:42:08.905Z,3.13
2022-11-04T01:45:06.940Z,4.18
2022-11-04T01:47:38.399Z,4.25
2022-11-04T01:50:09.778Z,3.75
2022-11-04T01:52:41.927Z,3.60
2022-11-04T01:55:13.562Z,3.42
2022-11-04T01:57:43.218Z,3.63
2022-11-04T02:00:13.839Z,3.97
2022-11-04T02:02:50.363Z,4.00
2022-11-04T02:05:18.390Z,3.90
2022-11-04T02:07:46.433Z,3.88
2022-11-04T02:10:14.113Z,4.10
2022-11-04T02:12:49.895Z,4.13
2022-11-04T02:15:22.243Z,4.00
2022-11-04T02:18:22.025Z,4.57
2022-11-04T02:21:12.775Z,4.23
2022-11-04T02:24:00.824Z,4.32
2022-11-04T02:26:56.441Z,4.40
2022-11-04T02:30:12.345Z,4.50
2022-11-04T02:32:48.763Z,4.75
2022-11-04T02:35:23.648Z,4.65
2022-11-04T02:37:58.574Z,4.95
2022-11-04T02:40:33.355Z,4.90
2022-11-04T02:43:03.950Z,4.97
2022-11-04T02:45:37.633Z,5.83
2022-11-04T02:48:12.051Z,5.03
2022-11-04T02:50:43.996Z,5.30
2022-11-04T02:53:16.462Z,5.43
2022-11-04T02:55:45.765Z,5.40
2022-11-04T02:58:16.487Z,5.45
2022-11-04T03:00:47.472Z,6.00
2022-11-04T03:03:17.335Z,5.97
2022-11-04T03:05:48.782Z,5.45
2022-11-04T03:08:18.840Z,5.32
2022-11-04T03:10:49.971Z,5.57
2022-11-04T03:13:20.573Z,5.70
2022-11-04T03:15:52.865Z,6.05
2022-11-04T03:18:25.240Z,6.18
2022-11-04T03:20:53.784Z,4.63
2022-11-04T03:23:21.626Z,6.03
2022-11-04T03:25:51.561Z,5.50
2022-11-04T03:28:26.286Z,5.65
2022-11-04T03:31:00.203Z,5.82
2022-11-04T03:33:30.417Z,5.68
2022-11-04T03:35:58.864Z,5.53
2022-11-04T03:38:26.632Z,4.85
2022-11-04T03:40:54.498Z,5.13
2022-11-04T03:43:24.484Z,4.73
2022-11-04T03:45:52.623Z,4.80
2022-11-04T03:48:22.389Z,4.90
2022-11-04T03:50:51.414Z,5.05
2022-11-04T03:53:22.744Z,4.95
2022-11-04T03:56:01.415Z,4.53
2022-11-04T03:58:39.121Z,4.57
2022-11-04T04:01:13.628Z,4.88
2022-11-04T04:03:47.293Z,4.60
2022-11-04T04:06:17.595Z,4.80
2022-11-04T04:08:48.199Z,4.32
2022-11-04T04:11:20.465Z,4.97
2022-11-04T04:13:53.806Z,3.80
2022-11-04T04:16:27.026Z,4.07
2022-11-04T04:18:59.102Z,4.50
2022-11-04T04:21:31.062Z,4.63
2022-11-04T04:24:18.932Z,4.40
2022-11-04T04:27:07.717Z,4.93
2022-11-04T04:29:36.212Z,3.95
2022-11-04T04:32:05.426Z,3.80
2022-11-04T04:34:34.904Z,4.03
2022-11-04T04:37:04.795Z,4.00
2022-11-04T04:39:55.176Z,3.83
2022-11-04T04:42:40.210Z,3.80
2022-11-04T04:45:09.040Z,4.33
2022-11-04T04:47:42.966Z,4.20
2022-11-04T04:50:14.621Z,4.25
2022-11-04T04:52:43.832Z,3.88
2022-11-04T04:55:12.327Z,4.30
2022-11-04T04:57:40.074Z,4.28
2022-11-04T05:00:10.275Z,4.80
2022-11-04T05:02:38.173Z,4.50
2022-11-04T05:05:08.031Z,4.38
2022-11-04T05:07:37.150Z,4.38
2022-11-04T05:10:05.610Z,3.97
2022-11-04T05:12:47.473Z,4.20
2022-11-04T05:15:15.453Z,4.60
2022-11-04T05:17:43.023Z,4.25
2022-11-04T05:20:12.042Z,4.65
2022-11-04T05:22:44.223Z,4.30
2022-11-04T05:25:11.815Z,3.90
2022-11-04T05:27:39.768Z,4.35
2022-11-04T05:30:09.488Z,4.20
2022-11-04T05:32:37.094Z,4.72
2022-11-04T05:35:05.134Z,4.85
2022-11-04T05:37:33.811Z,4.60
2022-11-04T05:40:03.247Z,4.35
2022-11-04T05:42:32.265Z,4.25
2022-11-04T05:44:59.812Z,4.40
2022-11-04T05:47:27.388Z,3.90
2022-11-04T05:49:55.194Z,3.90
2022-11-04T05:52:24.725Z,3.58
2022-11-04T05:54:52.756Z,3.88
2022-11-04T05:57:21.817Z,3.63
2022-11-04T05:59:49.399Z,3.83
2022-11-04T06:02:17.082Z,4.05
2022-11-04T06:04:44.892Z,3.53
2022-11-04T06:07:13.451Z,4.97
2022-11-04T06:09:41.516Z,4.13
2022-11-04T06:12:10.906Z,4.40
2022-11-04T06:14:40.445Z,3.55
2022-11-04T06:17:08.206Z,4.38
2022-11-04T06:19:35.777Z,4.68
2022-11-04T06:22:04.110Z,4.30
2022-11-04T06:24:31.646Z,3.55
2022-11-04T06:26:59.356Z,3.55
2022-11-04T06:29:26.942Z,3.60
2022-11-04T06:31:56.089Z,3.38
2022-11-04T06:34:23.687Z,3.30
2022-11-04T06:36:51.524Z,3.20
2022-11-04T06:39:20.232Z,3.30
2022-11-04T06:41:50.563Z,3.47
2022-11-04T06:44:19.597Z,3.58
2022-11-04T06:46:48.108Z,3.88
2022-11-04T06:49:18.958Z,4.40
2022-11-04T06:51:47.230Z,3.70
2022-11-04T06:54:15.373Z,3.42
2022-11-04T06:56:44.234Z,3.60
2022-11-04T06:59:17.184Z,3.97
2022-11-04T07:01:44.981Z,3.80
2022-11-04T07:04:12.927Z,3.63
2022-11-04T07:06:44.768Z,3.58
2022-11-04T07:09:13.907Z,4.90
2022-11-04T07:11:42.880Z,4.30
2022-11-04T07:14:11.907Z,3.63
2022-11-04T07:16:39.668Z,3.92
2022-11-04T07:19:07.861Z,3.53
2022-11-04T07:21:35.771Z,2.95
2022-11-04T07:24:05.019Z,2.97
2022-11-04T07:26:32.881Z,3.13
2022-11-04T07:29:01.086Z,3.00
2022-11-04T07:31:29.141Z,2.72
2022-11-04T07:33:57.038Z,2.30
2022-11-04T07:36:24.635Z,2.60
2022-11-04T07:38:52.255Z,2.20
2022-11-04T07:41:21.911Z,2.10
2022-11-04T07:43:51.268Z,2.08
2022-11-04T07:50:11.633Z,2.55
2022-11-04T07:52:40.677Z,2.20
2022-11-04T07:55:09.977Z,2.75
2022-11-04T07:57:39.030Z,2.63
2022-11-04T08:00:09.353Z,2.78
2022-11-04T08:02:37.161Z,2.40
2022-11-04T08:05:06.408Z,2.72
2022-11-04T08:07:33.959Z,2.97
2022-11-04T08:10:01.477Z,3.22
2022-11-04T08:12:29.864Z,2.70
2022-11-04T08:14:59.678Z,2.47
2022-11-04T08:17:27.507Z,3.33
2022-11-04T08:19:55.014Z,3.17
2022-11-04T08:22:22.821Z,3.20
2022-11-04T08:24:50.455Z,2.92
2022-11-04T08:27:17.936Z,3.00
2022-11-04T08:29:45.412Z,2.90
2022-11-04T08:32:14.296Z,2.58
2022-11-04T08:34:42.016Z,2.63
2022-11-04T08:37:09.528Z,2.80
2022-11-04T08:39:37.013Z,2.63
2022-11-04T08:42:05.009Z,2.77
2022-11-04T08:44:34.182Z,3.25
2022-11-04T08:47:02.310Z,3.10
2022-11-04T08:49:31.121Z,2.80
2022-11-04T08:52:00.471Z,2.67
2022-11-04T08:54:28.296Z,3.17
2022-11-04T08:56:56.725Z,2.03
2022-11-04T08:59:24.977Z,2.85
2022-11-04T09:01:52.682Z,2.63
2022-11-04T09:04:20.577Z,2.35
2022-11-04T09:06:50.875Z,2.78
2022-11-04T09:09:21.103Z,2.53
2022-11-04T09:11:49.145Z,2.13
2022-11-04T09:14:17.727Z,2.78
2022-11-04T09:16:45.266Z,3.13
2022-11-04T09:19:12.742Z,3.05
2022-11-04T09:21:40.242Z,2.88
2022-11-04T09:24:09.387Z,2.33
2022-11-04T09:26:36.853Z,2.10
2022-11-04T09:29:04.528Z,2.33
2022-11-04T09:31:32.161Z,2.53
2022-11-04T09:33:59.648Z,3.37
2022-11-04T09:36:28.961Z,2.70
2022-11-04T09:38:56.955Z,2.58
2022-11-04T09:41:40.440Z,2.63
2022-11-04T09:44:16.021Z,2.70
2022-11-04T09:46:43.981Z,2.28
2022-11-04T09:49:13.907Z,2.55
2022-11-04T09:51:57.444Z,2.90
2022-11-04T09:54:26.615Z,2.47
2022-11-04T09:56:58.300Z,1.95
2022-11-04T09:59:27.841Z,1.70
2022-11-04T10:02:07.899Z,2.20
2022-11-04T10:04:46.723Z,2.08
2022-11-04T10:07:23.641Z,2.38
2022-11-04T10:09:59.356Z,1.75
2022-11-04T10:12:57.038Z,1.97
2022-11-04T10:15:47.723Z,1.90
2022-11-04T10:18:29.916Z,2.20
2022-11-04T10:21:02.169Z,1.55
2022-11-04T10:23:33.925Z,1.63
2022-11-04T10:26:06.150Z,1.63
2022-11-04T10:28:41.952Z,2.63
2022-11-04T10:31:13.979Z,1.92
2022-11-04T10:33:44.875Z,1.88
2022-11-04T10:36:13.109Z,1.63
2022-11-04T10:38:43.427Z,2.03
2022-11-04T10:41:22.185Z,2.05
2022-11-04T10:43:51.651Z,1.52
2022-11-04T10:46:34.237Z,1.52
2022-11-04T10:49:21.341Z,1.90
2022-11-04T10:51:49.088Z,1.38
2022-11-04T10:54:16.589Z,2.27
2022-11-04T10:56:46.500Z,1.98
2022-11-04T10:59:23.916Z,1.42
2022-11-04T11:01:53.395Z,1.63
2022-11-04T11:04:33.231Z,2.08
2022-11-04T11:07:02.526Z,1.92
2022-11-04T11:09:31.318Z,1.50
2022-11-04T11:12:01.977Z,2.00
2022-11-04T11:14:36.425Z,1.90
2022-11-04T11:17:19.470Z,1.95
2022-11-04T11:19:50.898Z,1.50
2022-11-04T11:22:34.472Z,1.20
2022-11-04T11:25:21.027Z,1.60
2022-11-04T11:27:50.462Z,1.23
2022-11-04T11:30:25.563Z,1.60
2022-11-04T11:32:55.833Z,1.40
2022-11-04T11:35:26.535Z,1.67
2022-11-04T11:37:54.586Z,1.80
2022-11-04T11:40:31.581Z,1.45
2022-11-04T11:43:00.511Z,1.50
2022-11-04T11:45:30.017Z,1.25
2022-11-04T11:47:57.559Z,1.45
2022-11-04T11:50:31.281Z,1.60
2022-11-04T11:53:15.167Z,1.27
2022-11-04T11:55:47.861Z,1.42
2022-11-04T12:01:22.358Z,1.33
2022-11-04T12:09:38.323Z,2.45
2022-11-04T12:12:25.822Z,1.25
2022-11-04T12:15:04.738Z,0.93
2022-11-04T12:17:43.266Z,1.23
2022-11-04T12:20:37.652Z,0.90
2022-11-04T12:23:09.016Z,1.58
2022-11-04T12:25:43.957Z,1.25
2022-11-04T12:28:22.427Z,1.40
2022-11-04T12:31:00.073Z,1.70
2022-11-04T12:33:34.905Z,1.38
2022-11-04T12:36:13.963Z,1.17
2022-11-04T12:38:58.450Z,2.53
2022-11-04T12:41:52.412Z,1.25
2022-11-04T12:44:26.865Z,1.30
2022-11-04T12:46:59.874Z,1.20
2022-11-04T12:49:44.083Z,1.70
2022-11-04T12:52:22.226Z,1.63
2022-11-04T12:55:07.285Z,1.20
2022-11-04T12:57:40.890Z,2.15
2022-11-04T13:00:11.927Z,1.38
2022-11-04T13:02:44.087Z,2.03
2022-11-04T13:05:26.743Z,1.80
2022-11-04T13:07:57.764Z,2.80
2022-11-04T13:10:28.500Z,1.40
2022-11-04T13:12:57.044Z,1.40
2022-11-04T13:15:28.454Z,1.60
2022-11-04T13:18:01.458Z,1.30
2022-11-04T13:20:33.596Z,1.45
2022-11-04T13:23:04.058Z,2.80
2022-11-04T13:25:35.946Z,1.58
2022-11-04T13:28:04.390Z,1.00
2022-11-04T13:30:37.701Z,1.50
2022-11-04T13:33:12.473Z,1.25
2022-11-04T13:35:48.028Z,3.13
2022-11-04T13:38:17.113Z,1.23
2022-11-04T13:40:51.256Z,1.20
2022-11-04T13:43:48.705Z,1.50
2022-11-04T13:46:20.949Z,1.57
2022-11-04T13:48:55.913Z,1.60
2022-11-04T13:51:25.115Z,1.80
2022-11-04T13:53:54.105Z,1.50
2022-11-04T13:56:33.206Z,1.20
2022-11-04T13:59:05.585Z,1.73
2022-11-04T14:01:34.813Z,1.50
2022-11-04T14:04:06.369Z,1.30
2022-11-04T14:07:06.316Z,1.35
2022-11-04T14:10:00.589Z,1.52
2022-11-04T14:12:36.045Z,1.67
2022-11-04T14:15:10.596Z,1.45
2022-11-04T14:18:03.596Z,1.70
2022-11-04T14:20:37.110Z,1.45
2022-11-04T14:23:08.742Z,1.65
2022-11-04T14:25:40.479Z,1.90
2022-11-04T14:28:25.125Z,2.13
2022-11-04T14:30:53.409Z,6.25
2022-11-04T14:33:40.266Z,1.80
2022-11-04T14:36:27.388Z,2.05
2022-11-04T14:38:58.188Z,1.80
2022-11-04T14:41:34.527Z,1.95
2022-11-04T14:44:03.880Z,1.70
2022-11-04T14:46:35.632Z,1.58
2022-11-04T14:49:04.610Z,4.10
2022-11-04T14:51:33.932Z,2.20
2022-11-04T14:54:07.513Z,2.13
2022-11-04T14:56:35.371Z,1.60
2022-11-04T14:59:06.231Z,2.20
2022-11-04T15:01:35.775Z,2.40
2022-11-04T15:04:12.101Z,2.10
2022-11-04T15:06:54.095Z,2.05
2022-11-04T15:09:25.410Z,2.10
2022-11-04T15:12:10.942Z,2.25
2022-11-04T15:14:38.669Z,2.15
2022-11-04T15:17:06.281Z,2.38
2022-11-04T15:19:36.116Z,2.20
2022-11-04T15:22:06.030Z,1.90
2022-11-04T15:24:35.635Z,2.08
2022-11-04T15:27:05.625Z,1.80
2022-11-04T15:29:33.143Z,2.47
2022-11-04T15:32:04.932Z,2.35
2022-11-04T15:34:33.772Z,3.10
2022-11-04T15:37:04.120Z,2.47
2022-11-04T15:39:33.075Z,2.55
2022-11-04T15:42:22.255Z,2.40
2022-11-04T15:44:51.823Z,3.88
2022-11-04T15:47:24.404Z,2.70
2022-11-04T15:49:53.387Z,2.30
2022-11-04T15:52:23.249Z,2.85
2022-11-04T15:54:52.722Z,3.17
2022-11-04T15:57:24.119Z,3.50
2022-11-04T15:59:55.929Z,3.20
2022-11-04T16:02:28.104Z,2.92
2022-11-04T16:05:30.944Z,3.40
2022-11-04T16:08:16.181Z,3.40
2022-11-04T16:10:43.794Z,4.50
2022-11-04T16:13:23.464Z,3.67
2022-11-04T16:15:53.486Z,3.80
2022-11-04T16:18:23.693Z,4.10
2022-11-04T16:20:53.070Z,4.07
2022-11-04T16:23:24.862Z,4.45
2022-11-04T16:25:57.927Z,4.63
2022-11-04T16:28:25.866Z,4.30
2022-11-04T16:31:00.274Z,4.75
2022-11-04T16:33:28.006Z,5.20
2022-11-04T16:35:55.560Z,4.45
2022-11-04T16:38:24.666Z,4.97
2022-11-04T16:40:52.483Z,4.97
2022-11-04T16:43:21.529Z,5.50
2022-11-04T16:45:53.855Z,5.60
2022-11-04T16:48:23.736Z,5.72
2022-11-04T16:50:51.518Z,5.75
2022-11-04T16:53:19.063Z,6.45
2022-11-04T16:55:48.432Z,6.32
2022-11-04T16:58:19.167Z,5.95
2022-11-04T17:00:47.890Z,6.40
2022-11-04T17:03:21.718Z,6.40
2022-11-04T17:05:50.699Z,7.95
2022-11-04T17:08:18.225Z,7.27
2022-11-04T17:10:47.107Z,7.15
2022-11-04T17:13:16.094Z,7.33
2022-11-04T17:15:44.068Z,6.95
2022-11-04T17:18:14.359Z,6.57
2022-11-04T17:20:42.484Z,6.72
2022-11-04T17:23:10.715Z,6.88
2022-11-04T17:25:38.999Z,7.10
2022-11-04T17:28:06.791Z,7.32
2022-11-04T17:30:36.123Z,6.32
2022-11-04T17:33:06.470Z,7.00
2022-11-04T17:35:35.396Z,6.68
2022-11-04T17:38:02.982Z,6.28
2022-11-04T17:40:31.200Z,5.47
2022-11-04T17:43:17.517Z,5.72
2022-11-04T17:46:06.999Z,5.07
2022-11-04T17:48:35.506Z,5.00
2022-11-04T17:51:08.120Z,4.20
2022-11-04T17:53:36.737Z,4.05
2022-11-04T17:56:04.471Z,3.92
2022-11-04T17:58:32.334Z,3.67
2022-11-04T18:01:05.761Z,3.70
2022-11-04T18:03:33.667Z,3.70
2022-11-04T18:06:01.301Z,2.97
2022-11-04T18:08:30.130Z,2.95
2022-11-04T18:10:58.903Z,2.70
2022-11-04T18:13:25.823Z,2.57
2022-11-04T18:15:53.964Z,3.38
2022-11-04T18:18:23.460Z,1.92
2022-11-04T18:20:51.582Z,2.70
2022-11-04T18:23:20.044Z,1.98
2022-11-04T18:25:50.828Z,1.77
2022-11-04T18:28:18.969Z,2.15
2022-11-04T18:30:46.525Z,1.70
2022-11-04T18:33:14.303Z,1.50
2022-11-04T18:35:43.337Z,1.60
2022-11-04T18:38:12.043Z,1.40
2022-11-04T18:40:39.839Z,1.58
2022-11-04T18:43:09.561Z,1.88
2022-11-04T18:45:38.556Z,2.00
2022-11-04T18:48:07.386Z,3.05
2022-11-04T18:50:36.057Z,1.85
2022-11-04T18:53:05.343Z,2.47
2022-11-04T18:55:34.035Z,3.17
2022-11-04T18:58:03.013Z,2.50
2022-11-04T19:00:31.540Z,2.65
2022-11-04T19:02:59.128Z,2.47
2022-11-04T19:05:26.907Z,2.25
2022-11-04T19:07:54.848Z,2.70
2022-11-04T19:10:23.976Z,3.22
2022-11-04T19:13:09.549Z,2.92
2022-11-04T19:15:37.154Z,3.10
2022-11-04T19:18:04.942Z,3.72
2022-11-04T19:20:33.257Z,5.45
2022-11-04T19:23:01.921Z,4.13
2022-11-04T19:25:31.332Z,4.65
2022-11-04T19:28:26.684Z,4.10
2022-11-04T19:30:58.077Z,4.20
2022-11-04T19:33:25.643Z,3.80
2022-11-04T19:35:54.640Z,4.50
2022-11-04T19:38:24.515Z,5.63
2022-11-04T19:40:54.243Z,5.63
2022-11-04T19:43:22.188Z,7.00
2022-11-04T19:45:50.507Z,6.75
2022-11-04T19:48:19.400Z,6.43
2022-11-04T19:50:48.931Z,7.43
2022-11-04T19:53:16.830Z,7.68
2022-11-04T19:55:49.304Z,7.47
2022-11-04T19:58:18.581Z,7.70
2022-11-04T20:00:47.419Z,8.98
2022-11-04T20:03:15.545Z,9.05
2022-11-04T20:05:45.125Z,9.50
2022-11-04T20:08:13.705Z,10.70
2022-11-04T20:10:43.505Z,10.50
2022-11-04T20:13:33.150Z,10.98
2022-11-04T20:16:03.046Z,11.25
2022-11-04T20:18:32.064Z,11.07
2022-11-04T20:20:59.901Z,12.30
2022-11-04T20:23:28.522Z,12.82
2022-11-04T20:25:56.101Z,11.40
2022-11-04T20:28:24.002Z,12.10
2022-11-04T20:30:52.683Z,12.10
2022-11-04T20:33:22.694Z,12.90
2022-11-04T20:35:50.744Z,12.05
2022-11-04T20:38:18.714Z,13.52
2022-11-04T20:40:47.757Z,13.55
2022-11-04T20:43:15.328Z,12.65
2022-11-04T20:45:44.996Z,13.95
2022-11-04T20:48:16.024Z,13.07
2022-11-04T20:50:46.213Z,13.95
2022-11-04T20:53:13.852Z,14.07
2022-11-04T20:55:41.657Z,13.90
2022-11-04T20:58:09.670Z,13.45
2022-11-04T21:00:37.709Z,14.43
2022-11-04T21:03:05.305Z,14.95
2022-11-04T21:05:33.882Z,15.17
2022-11-04T21:08:03.177Z,14.95
2022-11-04T21:10:30.908Z,15.30
2022-11-04T21:12:58.536Z,16.10
2022-11-04T21:15:40.081Z,16.15
2022-11-04T21:18:08.327Z,17.08
2022-11-04T21:20:39.621Z,16.83
2022-11-04T21:23:08.700Z,16.97
2022-11-04T21:25:41.815Z,17.52
2022-11-04T21:28:09.611Z,17.25
2022-11-04T21:30:38.533Z,15.90
2022-11-04T21:33:06.922Z,16.92
2022-11-04T21:35:35.806Z,16.80
2022-11-04T21:38:03.980Z,15.93
2022-11-04T21:40:34.552Z,16.37
2022-11-04T21:43:02.441Z,17.60
2022-11-04T21:45:30.142Z,17.92
2022-11-04T21:47:58.783Z,16.80
2022-11-04T21:50:26.545Z,17.95
2022-11-04T21:52:54.302Z,17.85
2022-11-04T21:55:22.043Z,17.35
2022-11-04T21:57:51.288Z,16.73
2022-11-04T22:00:19.064Z,16.10
2022-11-04T22:02:51.843Z,17.15
2022-11-04T22:05:19.983Z,16.05
2022-11-04T22:08:05.002Z,15.50
2022-11-04T22:10:32.751Z,15.60
2022-11-04T22:13:01.868Z,15.48
2022-11-04T22:15:49.141Z,16.20
2022-11-04T22:18:17.629Z,15.48
2022-11-04T22:20:45.574Z,15.73
2022-11-04T22:23:13.217Z,14.40
2022-11-04T22:25:43.632Z,14.35
2022-11-04T22:28:15.780Z,15.05
2022-11-04T22:30:43.811Z,15.13
2022-11-04T22:33:12.036Z,15.38
2022-11-04T22:35:39.869Z,15.80
2022-11-04T22:38:07.690Z,15.02
2022-11-04T22:40:35.227Z,12.82
2022-11-04T22:43:02.983Z,13.73
2022-11-04T22:45:35.646Z,12.70
2022-11-04T22:48:03.218Z,13.27
2022-11-04T22:50:30.974Z,13.20
2022-11-04T22:52:59.626Z,11.73
2022-11-04T22:55:27.363Z,12.35
2022-11-04T22:57:55.383Z,12.67
2022-11-04T23:00:23.273Z,12.23
2022-11-04T23:02:52.617Z,12.48
2022-11-04T23:05:20.708Z,12.20
2022-11-04T23:07:49.339Z,11.02
2022-11-04T23:10:34.634Z,13.73
2022-11-04T23:13:19.592Z,12.07
2022-11-04T23:16:05.225Z,11.67
2022-11-04T23:18:43.357Z,10.90
2022-11-04T23:21:25.265Z,11.90
2022-11-04T23:24:10.828Z,12.38
2022-11-04T23:26:38.553Z,11.43
2022-11-04T23:29:23.816Z,11.87
2022-11-04T23:31:51.713Z,12.30
2022-11-04T23:34:38.679Z,11.55
2022-11-04T23:37:16.665Z,11.30
2022-11-04T23:39:45.647Z,10.65
2022-11-04T23:42:18.234Z,11.00
2022-11-04T23:45:05.245Z,11.07
2022-11-04T23:47:51.956Z,10.65
2022-11-04T23:50:38.897Z,10.67
2022-11-04T23:53:24.824Z,10.48
2022-11-04T23:56:11.024Z,10.77
2022-11-04T23:58:56.640Z,10.27
